Bishop, Illinois
Current Conditions -  °F | °C
As of 6:54 AM on Friday 31 Oct 2014 (Local Time) from KPIA Reporting Station
Broken Clouds Broken Clouds  
Wind Chill: 31°   Ceiling: 6000
Heat Index: 39°   Visibility: 10mi
Dew Point: 22°   Wind: 14mph
Humidity: 50%   Direction: 340°NNW
Pressure: 30.18"   Gusts: 29mph
Location:  40.3389°N, 89.8274°W
Report Text: KPIA 311154Z 34012G25KT 10SM FEW041 BKN060 04/M06 A3018 RMK AO2 PK WND 35032/1123 SLP225 60001 70008 T00391056 10089 20039 53028
Loading
Personal Weather Stations






























Interactive Weather Map New forecast layout! Learn more

10-Day Weather Forecast

Advertisements
Track Severe Weather on mobile